sensor_id;sensor_type;location;lat;lon;timestamp;P1;durP1;ratioP1;P2;durP2;ratioP2
21183;SDS011;18176;49.502;11.754;2022-07-12T00:00:11;0.97;;;0.90;;
21183;SDS011;18176;49.502;11.754;2022-07-12T00:04:08;4.30;;;1.47;;
21183;SDS011;18176;49.502;11.754;2022-07-12T00:08:06;0.93;;;0.90;;
21183;SDS011;18176;49.502;11.754;2022-07-12T00:12:03;0.93;;;0.90;;
21183;SDS011;18176;49.502;11.754;2022-07-12T00:16:00;1.00;;;1.00;;
21183;SDS011;18176;49.502;11.754;2022-07-12T00:19:57;2.57;;;1.17;;
21183;SDS011;18176;49.502;11.754;2022-07-12T00:23:55;1.43;;;1.20;;
21183;SDS011;18176;49.502;11.754;2022-07-12T00:27:52;2.27;;;0.90;;
21183;SDS011;18176;49.502;11.754;2022-07-12T00:31:49;1.33;;;0.90;;
21183;SDS011;18176;49.502;11.754;2022-07-12T00:35:47;0.90;;;0.90;;
21183;SDS011;18176;49.502;11.754;2022-07-12T00:39:44;1.17;;;0.90;;
21183;SDS011;18176;49.502;11.754;2022-07-12T00:43:41;3.00;;;0.93;;
21183;SDS011;18176;49.502;11.754;2022-07-12T00:47:47;1.60;;;0.88;;
21183;SDS011;18176;49.502;11.754;2022-07-12T00:51:48;1.03;;;0.93;;
21183;SDS011;18176;49.502;11.754;2022-07-12T00:55:48;1.00;;;0.90;;
21183;SDS011;18176;49.502;11.754;2022-07-12T00:59:49;0.90;;;0.90;;
21183;SDS011;18176;49.502;11.754;2022-07-12T01:03:47;1.00;;;1.00;;
21183;SDS011;18176;49.502;11.754;2022-07-12T01:07:44;1.37;;;1.00;;
21183;SDS011;18176;49.502;11.754;2022-07-12T01:11:41;1.00;;;0.97;;
21183;SDS011;18176;49.502;11.754;2022-07-12T01:15:40;0.90;;;0.90;;
21183;SDS011;18176;49.502;11.754;2022-07-12T01:19:38;1.93;;;0.80;;
21183;SDS011;18176;49.502;11.754;2022-07-12T01:23:39;0.90;;;0.90;;
21183;SDS011;18176;49.502;11.754;2022-07-12T01:27:37;1.37;;;1.13;;
21183;SDS011;18176;49.502;11.754;2022-07-12T01:31:35;1.10;;;1.10;;
21183;SDS011;18176;49.502;11.754;2022-07-12T01:35:33;2.53;;;1.00;;
21183;SDS011;18176;49.502;11.754;2022-07-12T01:39:32;0.90;;;0.90;;
21183;SDS011;18176;49.502;11.754;2022-07-12T01:43:29;2.43;;;1.00;;
21183;SDS011;18176;49.502;11.754;2022-07-12T01:52:39;1.17;;;1.00;;
21183;SDS011;18176;49.502;11.754;2022-07-12T01:56:37;1.47;;;1.17;;
21183;SDS011;18176;49.502;11.754;2022-07-12T02:00:35;2.20;;;0.80;;
21183;SDS011;18176;49.502;11.754;2022-07-12T02:04:33;1.20;;;1.00;;
21183;SDS011;18176;49.502;11.754;2022-07-12T02:08:31;1.57;;;1.23;;
21183;SDS011;18176;49.502;11.754;2022-07-12T02:12:28;2.20;;;1.23;;
21183;SDS011;18176;49.502;11.754;2022-07-12T02:16:25;1.23;;;1.13;;
21183;SDS011;18176;49.502;11.754;2022-07-12T02:20:23;1.33;;;1.10;;
21183;SDS011;18176;49.502;11.754;2022-07-12T02:24:20;1.53;;;1.30;;
21183;SDS011;18176;49.502;11.754;2022-07-12T02:28:17;1.20;;;1.10;;
21183;SDS011;18176;49.502;11.754;2022-07-12T02:32:14;1.13;;;1.07;;
21183;SDS011;18176;49.502;11.754;2022-07-12T02:36:11;1.53;;;1.20;;
21183;SDS011;18176;49.502;11.754;2022-07-12T02:40:11;1.30;;;1.20;;
21183;SDS011;18176;49.502;11.754;2022-07-12T02:44:26;1.83;;;1.10;;
21183;SDS011;18176;49.502;11.754;2022-07-12T02:48:23;1.40;;;1.30;;
21183;SDS011;18176;49.502;11.754;2022-07-12T02:52:21;1.30;;;1.20;;
21183;SDS011;18176;49.502;11.754;2022-07-12T02:56:18;1.20;;;1.10;;
21183;SDS011;18176;49.502;11.754;2022-07-12T03:00:15;1.23;;;1.13;;
21183;SDS011;18176;49.502;11.754;2022-07-12T03:04:12;1.63;;;1.50;;
21183;SDS011;18176;49.502;11.754;2022-07-12T03:08:09;2.17;;;1.50;;
21183;SDS011;18176;49.502;11.754;2022-07-12T03:12:07;1.80;;;1.30;;
21183;SDS011;18176;49.502;11.754;2022-07-12T03:16:05;1.37;;;1.27;;
21183;SDS011;18176;49.502;11.754;2022-07-12T03:20:04;1.40;;;1.30;;
21183;SDS011;18176;49.502;11.754;2022-07-12T03:24:04;1.37;;;1.27;;
21183;SDS011;18176;49.502;11.754;2022-07-12T03:28:01;1.13;;;1.13;;
21183;SDS011;18176;49.502;11.754;2022-07-12T03:31:58;1.00;;;1.00;;
21183;SDS011;18176;49.502;11.754;2022-07-12T03:35:55;1.47;;;1.20;;
21183;SDS011;18176;49.502;11.754;2022-07-12T03:39:52;2.80;;;1.37;;
21183;SDS011;18176;49.502;11.754;2022-07-12T03:43:53;1.37;;;1.27;;
21183;SDS011;18176;49.502;11.754;2022-07-12T03:47:50;1.40;;;1.30;;
21183;SDS011;18176;49.502;11.754;2022-07-12T03:51:47;2.40;;;1.60;;
21183;SDS011;18176;49.502;11.754;2022-07-12T03:55:44;1.40;;;1.30;;
21183;SDS011;18176;49.502;11.754;2022-07-12T03:59:42;1.77;;;1.43;;
21183;SDS011;18176;49.502;11.754;2022-07-12T04:03:40;1.40;;;1.30;;
21183;SDS011;18176;49.502;11.754;2022-07-12T04:07:37;1.40;;;1.30;;
21183;SDS011;18176;49.502;11.754;2022-07-12T04:11:36;1.40;;;1.30;;
21183;SDS011;18176;49.502;11.754;2022-07-12T04:15:33;2.13;;;1.40;;
21183;SDS011;18176;49.502;11.754;2022-07-12T04:19:31;1.60;;;1.50;;
21183;SDS011;18176;49.502;11.754;2022-07-12T04:23:30;1.53;;;1.43;;
21183;SDS011;18176;49.502;11.754;2022-07-12T04:27:27;3.07;;;1.60;;
21183;SDS011;18176;49.502;11.754;2022-07-12T04:31:24;1.50;;;1.40;;
21183;SDS011;18176;49.502;11.754;2022-07-12T04:35:21;1.50;;;1.40;;
21183;SDS011;18176;49.502;11.754;2022-07-12T04:39:18;1.83;;;1.63;;
21183;SDS011;18176;49.502;11.754;2022-07-12T04:43:15;2.00;;;1.63;;
21183;SDS011;18176;49.502;11.754;2022-07-12T04:47:12;1.70;;;1.60;;
21183;SDS011;18176;49.502;11.754;2022-07-12T04:51:10;2.13;;;1.93;;
21183;SDS011;18176;49.502;11.754;2022-07-12T04:55:07;1.63;;;1.53;;
21183;SDS011;18176;49.502;11.754;2022-07-12T04:59:04;1.90;;;1.70;;
21183;SDS011;18176;49.502;11.754;2022-07-12T05:03:02;1.90;;;1.80;;
21183;SDS011;18176;49.502;11.754;2022-07-12T05:06:59;2.27;;;1.83;;
21183;SDS011;18176;49.502;11.754;2022-07-12T05:10:56;6.00;;;1.87;;
21183;SDS011;18176;49.502;11.754;2022-07-12T05:14:53;1.73;;;1.63;;
21183;SDS011;18176;49.502;11.754;2022-07-12T05:18:50;3.33;;;1.80;;
21183;SDS011;18176;49.502;11.754;2022-07-12T05:22:49;1.83;;;1.73;;
21183;SDS011;18176;49.502;11.754;2022-07-12T05:26:47;1.60;;;1.50;;
21183;SDS011;18176;49.502;11.754;2022-07-12T05:30:45;2.83;;;2.00;;
21183;SDS011;18176;49.502;11.754;2022-07-12T05:34:42;2.73;;;2.10;;
21183;SDS011;18176;49.502;11.754;2022-07-12T05:38:39;2.63;;;2.07;;
21183;SDS011;18176;49.502;11.754;2022-07-12T05:42:36;2.67;;;1.87;;
21183;SDS011;18176;49.502;11.754;2022-07-12T05:46:33;2.73;;;2.10;;
21183;SDS011;18176;49.502;11.754;2022-07-12T05:50:31;2.80;;;2.10;;
21183;SDS011;18176;49.502;11.754;2022-07-12T05:54:28;2.10;;;1.90;;
21183;SDS011;18176;49.502;11.754;2022-07-12T05:58:25;2.73;;;1.80;;
21183;SDS011;18176;49.502;11.754;2022-07-12T06:02:22;3.27;;;1.70;;
21183;SDS011;18176;49.502;11.754;2022-07-12T06:06:19;2.03;;;1.80;;
21183;SDS011;18176;49.502;11.754;2022-07-12T06:10:16;1.80;;;1.70;;
21183;SDS011;18176;49.502;11.754;2022-07-12T06:14:14;1.63;;;1.53;;
21183;SDS011;18176;49.502;11.754;2022-07-12T06:18:11;2.80;;;1.70;;
21183;SDS011;18176;49.502;11.754;2022-07-12T06:22:08;1.70;;;1.60;;
21183;SDS011;18176;49.502;11.754;2022-07-12T06:26:05;3.47;;;1.80;;
21183;SDS011;18176;49.502;11.754;2022-07-12T06:30:02;4.30;;;1.90;;
21183;SDS011;18176;49.502;11.754;2022-07-12T06:34:00;1.80;;;1.70;;
21183;SDS011;18176;49.502;11.754;2022-07-12T06:37:57;2.42;;;1.60;;
21183;SDS011;18176;49.502;11.754;2022-07-12T06:41:54;2.55;;;2.05;;
21183;SDS011;18176;49.502;11.754;2022-07-12T06:45:52;2.83;;;1.80;;
21183;SDS011;18176;49.502;11.754;2022-07-12T06:49:49;5.85;;;1.90;;
21183;SDS011;18176;49.502;11.754;2022-07-12T06:53:46;3.35;;;1.70;;
21183;SDS011;18176;49.502;11.754;2022-07-12T06:57:43;2.42;;;1.90;;
21183;SDS011;18176;49.502;11.754;2022-07-12T07:01:41;1.95;;;1.80;;
21183;SDS011;18176;49.502;11.754;2022-07-12T07:05:38;2.67;;;1.73;;
21183;SDS011;18176;49.502;11.754;2022-07-12T07:09:35;1.90;;;1.80;;
21183;SDS011;18176;49.502;11.754;2022-07-12T07:13:32;2.63;;;1.98;;
21183;SDS011;18176;49.502;11.754;2022-07-12T07:17:38;5.40;;;2.03;;
21183;SDS011;18176;49.502;11.754;2022-07-12T07:21:35;2.92;;;2.05;;
21183;SDS011;18176;49.502;11.754;2022-07-12T07:25:32;3.15;;;2.10;;
21183;SDS011;18176;49.502;11.754;2022-07-12T07:29:29;2.10;;;1.90;;
21183;SDS011;18176;49.502;11.754;2022-07-12T07:33:45;3.70;;;2.03;;
21183;SDS011;18176;49.502;11.754;2022-07-12T07:37:42;2.22;;;2.03;;
21183;SDS011;18176;49.502;11.754;2022-07-12T07:41:39;3.88;;;2.17;;
21183;SDS011;18176;49.502;11.754;2022-07-12T07:45:37;1.77;;;1.65;;
21183;SDS011;18176;49.502;11.754;2022-07-12T07:49:34;2.72;;;2.03;;
21183;SDS011;18176;49.502;11.754;2022-07-12T07:53:31;1.70;;;1.60;;
21183;SDS011;18176;49.502;11.754;2022-07-12T07:57:29;2.92;;;1.70;;
21183;SDS011;18176;49.502;11.754;2022-07-12T08:01:26;2.47;;;1.40;;
21183;SDS011;18176;49.502;11.754;2022-07-12T08:05:41;2.35;;;1.40;;
21183;SDS011;18176;49.502;11.754;2022-07-12T08:09:38;1.35;;;1.25;;
21183;SDS011;18176;49.502;11.754;2022-07-12T08:13:35;5.88;;;1.50;;
21183;SDS011;18176;49.502;11.754;2022-07-12T08:17:32;1.88;;;1.20;;
21183;SDS011;18176;49.502;11.754;2022-07-12T08:21:37;1.75;;;1.40;;
21183;SDS011;18176;49.502;11.754;2022-07-12T08:25:34;4.03;;;1.35;;
21183;SDS011;18176;49.502;11.754;2022-07-12T08:29:31;2.53;;;1.20;;
21183;SDS011;18176;49.502;11.754;2022-07-12T08:33:29;4.10;;;1.30;;
21183;SDS011;18176;49.502;11.754;2022-07-12T08:37:26;2.58;;;1.00;;
21183;SDS011;18176;49.502;11.754;2022-07-12T08:41:23;1.10;;;1.00;;
21183;SDS011;18176;49.502;11.754;2022-07-12T08:45:20;1.75;;;1.05;;
21183;SDS011;18176;49.502;11.754;2022-07-12T08:49:17;1.00;;;0.90;;
21183;SDS011;18176;49.502;11.754;2022-07-12T08:53:14;0.95;;;0.95;;
21183;SDS011;18176;49.502;11.754;2022-07-12T08:57:11;1.25;;;1.00;;
21183;SDS011;18176;49.502;11.754;2022-07-12T09:01:41;1.45;;;1.17;;
21183;SDS011;18176;49.502;11.754;2022-07-12T09:05:53;0.95;;;0.75;;
21183;SDS011;18176;49.502;11.754;2022-07-12T09:09:52;1.58;;;0.82;;
21183;SDS011;18176;49.502;11.754;2022-07-12T09:14:00;1.63;;;0.90;;
21183;SDS011;18176;49.502;11.754;2022-07-12T09:18:03;2.70;;;0.70;;
21183;SDS011;18176;49.502;11.754;2022-07-12T09:22:15;1.65;;;0.70;;
21183;SDS011;18176;49.502;11.754;2022-07-12T09:26:16;2.53;;;0.60;;
21183;SDS011;18176;49.502;11.754;2022-07-12T09:30:13;0.70;;;0.70;;
21183;SDS011;18176;49.502;11.754;2022-07-12T09:34:10;1.20;;;0.80;;
21183;SDS011;18176;49.502;11.754;2022-07-12T09:38:26;0.60;;;0.60;;
21183;SDS011;18176;49.502;11.754;2022-07-12T09:42:27;0.73;;;0.73;;
21183;SDS011;18176;49.502;11.754;2022-07-12T09:46:24;4.18;;;1.10;;
21183;SDS011;18176;49.502;11.754;2022-07-12T09:50:22;0.80;;;0.80;;
21183;SDS011;18176;49.502;11.754;2022-07-12T09:54:21;0.80;;;0.80;;
21183;SDS011;18176;49.502;11.754;2022-07-12T09:58:29;0.63;;;0.63;;
21183;SDS011;18176;49.502;11.754;2022-07-12T10:02:32;0.70;;;0.70;;
21183;SDS011;18176;49.502;11.754;2022-07-12T10:06:31;1.63;;;0.70;;
21183;SDS011;18176;49.502;11.754;2022-07-12T10:10:31;0.80;;;0.80;;
21183;SDS011;18176;49.502;11.754;2022-07-12T10:14:29;3.42;;;0.80;;
21183;SDS011;18176;49.502;11.754;2022-07-12T10:18:27;0.80;;;0.80;;
21183;SDS011;18176;49.502;11.754;2022-07-12T10:22:25;1.20;;;0.90;;
21183;SDS011;18176;49.502;11.754;2022-07-12T10:26:27;0.80;;;0.80;;
21183;SDS011;18176;49.502;11.754;2022-07-12T10:30:42;1.67;;;0.95;;
21183;SDS011;18176;49.502;11.754;2022-07-12T10:34:41;0.77;;;0.77;;
21183;SDS011;18176;49.502;11.754;2022-07-12T10:38:38;0.88;;;0.85;;
21183;SDS011;18176;49.502;11.754;2022-07-12T10:42:36;1.60;;;0.80;;
21183;SDS011;18176;49.502;11.754;2022-07-12T10:46:33;2.50;;;0.80;;
21183;SDS011;18176;49.502;11.754;2022-07-12T10:59:10;0.70;;;0.70;;
21183;SDS011;18176;49.502;11.754;2022-07-12T11:03:07;0.80;;;0.80;;
21183;SDS011;18176;49.502;11.754;2022-07-12T11:07:11;1.58;;;0.90;;
21183;SDS011;18176;49.502;11.754;2022-07-12T11:11:15;1.90;;;0.80;;
21183;SDS011;18176;49.502;11.754;2022-07-12T11:15:12;2.22;;;0.98;;
21183;SDS011;18176;49.502;11.754;2022-07-12T11:19:10;0.90;;;0.90;;
21183;SDS011;18176;49.502;11.754;2022-07-12T11:23:07;1.00;;;1.00;;
21183;SDS011;18176;49.502;11.754;2022-07-12T11:27:05;2.22;;;1.00;;
21183;SDS011;18176;49.502;11.754;2022-07-12T11:31:03;1.55;;;0.90;;
21183;SDS011;18176;49.502;11.754;2022-07-12T11:35:02;2.25;;;0.93;;
21183;SDS011;18176;49.502;11.754;2022-07-12T11:39:00;1.00;;;0.90;;
21183;SDS011;18176;49.502;11.754;2022-07-12T11:42:58;1.65;;;0.90;;
21183;SDS011;18176;49.502;11.754;2022-07-12T11:46:57;1.10;;;0.80;;
21183;SDS011;18176;49.502;11.754;2022-07-12T11:50:54;1.05;;;0.80;;
21183;SDS011;18176;49.502;11.754;2022-07-12T11:54:52;0.90;;;0.80;;
21183;SDS011;18176;49.502;11.754;2022-07-12T11:58:56;0.70;;;0.70;;
21183;SDS011;18176;49.502;11.754;2022-07-12T12:02:53;1.23;;;0.85;;
21183;SDS011;18176;49.502;11.754;2022-07-12T12:06:51;0.82;;;0.80;;
21183;SDS011;18176;49.502;11.754;2022-07-12T12:10:55;0.65;;;0.65;;
21183;SDS011;18176;49.502;11.754;2022-07-12T12:14:55;0.70;;;0.70;;
21183;SDS011;18176;49.502;11.754;2022-07-12T12:18:52;2.45;;;0.80;;
21183;SDS011;18176;49.502;11.754;2022-07-12T12:22:50;1.88;;;0.80;;
21183;SDS011;18176;49.502;11.754;2022-07-12T12:26:50;1.02;;;0.80;;
21183;SDS011;18176;49.502;11.754;2022-07-12T12:39:33;0.70;;;0.70;;
21183;SDS011;18176;49.502;11.754;2022-07-12T12:43:30;0.63;;;0.60;;
21183;SDS011;18176;49.502;11.754;2022-07-12T12:47:28;0.75;;;0.60;;
21183;SDS011;18176;49.502;11.754;2022-07-12T12:51:29;0.75;;;0.75;;
21183;SDS011;18176;49.502;11.754;2022-07-12T12:55:26;1.98;;;0.70;;
21183;SDS011;18176;49.502;11.754;2022-07-12T12:59:23;1.42;;;0.90;;
21183;SDS011;18176;49.502;11.754;2022-07-12T13:03:21;2.25;;;0.70;;
21183;SDS011;18176;49.502;11.754;2022-07-12T13:07:22;2.45;;;0.80;;
21183;SDS011;18176;49.502;11.754;2022-07-12T13:11:19;0.73;;;0.73;;
21183;SDS011;18176;49.502;11.754;2022-07-12T13:15:16;0.70;;;0.70;;
21183;SDS011;18176;49.502;11.754;2022-07-12T13:19:14;0.95;;;0.68;;
21183;SDS011;18176;49.502;11.754;2022-07-12T13:23:14;0.95;;;0.90;;
21183;SDS011;18176;49.502;11.754;2022-07-12T13:27:11;1.08;;;0.77;;
21183;SDS011;18176;49.502;11.754;2022-07-12T13:31:08;1.33;;;0.80;;
21183;SDS011;18176;49.502;11.754;2022-07-12T13:35:06;0.65;;;0.65;;
21183;SDS011;18176;49.502;11.754;2022-07-12T13:39:05;1.10;;;0.70;;
21183;SDS011;18176;49.502;11.754;2022-07-12T13:43:20;0.82;;;0.70;;
21183;SDS011;18176;49.502;11.754;2022-07-12T13:47:21;1.15;;;0.80;;
21183;SDS011;18176;49.502;11.754;2022-07-12T13:51:20;1.45;;;0.85;;
21183;SDS011;18176;49.502;11.754;2022-07-12T13:55:27;3.03;;;0.80;;
21183;SDS011;18176;49.502;11.754;2022-07-12T13:59:24;0.70;;;0.70;;
21183;SDS011;18176;49.502;11.754;2022-07-12T14:03:22;0.70;;;0.70;;
21183;SDS011;18176;49.502;11.754;2022-07-12T14:07:19;1.98;;;0.75;;
21183;SDS011;18176;49.502;11.754;2022-07-12T14:11:17;3.10;;;0.70;;
21183;SDS011;18176;49.502;11.754;2022-07-12T14:15:14;1.75;;;0.90;;
21183;SDS011;18176;49.502;11.754;2022-07-12T14:19:15;1.25;;;1.17;;
21183;SDS011;18176;49.502;11.754;2022-07-12T14:23:12;0.90;;;0.80;;
21183;SDS011;18176;49.502;11.754;2022-07-12T14:27:10;2.95;;;0.90;;
21183;SDS011;18176;49.502;11.754;2022-07-12T14:31:07;2.20;;;0.70;;
21183;SDS011;18176;49.502;11.754;2022-07-12T14:35:05;2.15;;;0.75;;
21183;SDS011;18176;49.502;11.754;2022-07-12T14:39:04;1.05;;;0.70;;
21183;SDS011;18176;49.502;11.754;2022-07-12T14:43:01;2.65;;;0.80;;
21183;SDS011;18176;49.502;11.754;2022-07-12T14:46:58;3.13;;;0.80;;
21183;SDS011;18176;49.502;11.754;2022-07-12T14:50:55;1.80;;;0.90;;
21183;SDS011;18176;49.502;11.754;2022-07-12T14:54:52;0.80;;;0.80;;
21183;SDS011;18176;49.502;11.754;2022-07-12T14:58:49;1.48;;;0.80;;
21183;SDS011;18176;49.502;11.754;2022-07-12T15:02:46;1.98;;;0.70;;
21183;SDS011;18176;49.502;11.754;2022-07-12T15:06:47;2.72;;;1.20;;
21183;SDS011;18176;49.502;11.754;2022-07-12T15:10:45;0.93;;;0.93;;
21183;SDS011;18176;49.502;11.754;2022-07-12T15:14:42;1.45;;;0.77;;
21183;SDS011;18176;49.502;11.754;2022-07-12T15:18:44;3.50;;;0.80;;
21183;SDS011;18176;49.502;11.754;2022-07-12T15:22:41;3.22;;;1.00;;
21183;SDS011;18176;49.502;11.754;2022-07-12T15:26:38;0.88;;;0.88;;
21183;SDS011;18176;49.502;11.754;2022-07-12T15:30:36;3.35;;;0.80;;
21183;SDS011;18176;49.502;11.754;2022-07-12T15:34:34;1.70;;;0.80;;
21183;SDS011;18176;49.502;11.754;2022-07-12T15:38:31;4.07;;;0.85;;
21183;SDS011;18176;49.502;11.754;2022-07-12T15:42:29;2.50;;;1.30;;
21183;SDS011;18176;49.502;11.754;2022-07-12T15:46:26;0.93;;;0.93;;
21183;SDS011;18176;49.502;11.754;2022-07-12T15:50:23;2.00;;;1.10;;
21183;SDS011;18176;49.502;11.754;2022-07-12T15:54:21;1.48;;;0.80;;
21183;SDS011;18176;49.502;11.754;2022-07-12T15:58:18;0.80;;;0.80;;
21183;SDS011;18176;49.502;11.754;2022-07-12T16:02:15;1.00;;;0.80;;
21183;SDS011;18176;49.502;11.754;2022-07-12T16:06:19;0.93;;;0.93;;
21183;SDS011;18176;49.502;11.754;2022-07-12T16:10:16;1.70;;;1.60;;
21183;SDS011;18176;49.502;11.754;2022-07-12T16:14:13;4.63;;;1.27;;
21183;SDS011;18176;49.502;11.754;2022-07-12T16:18:19;1.15;;;0.85;;
21183;SDS011;18176;49.502;11.754;2022-07-12T16:22:16;6.38;;;1.20;;
21183;SDS011;18176;49.502;11.754;2022-07-12T16:26:13;2.80;;;2.60;;
21183;SDS011;18176;49.502;11.754;2022-07-12T16:30:10;2.20;;;1.00;;
21183;SDS011;18176;49.502;11.754;2022-07-12T16:34:08;0.82;;;0.82;;
21183;SDS011;18176;49.502;11.754;2022-07-12T16:38:05;0.90;;;0.90;;
21183;SDS011;18176;49.502;11.754;2022-07-12T16:42:03;1.85;;;1.10;;
21183;SDS011;18176;49.502;11.754;2022-07-12T16:50:25;1.45;;;0.98;;
21183;SDS011;18176;49.502;11.754;2022-07-12T16:54:22;2.08;;;1.15;;
21183;SDS011;18176;49.502;11.754;2022-07-12T16:58:19;3.17;;;1.10;;
21183;SDS011;18176;49.502;11.754;2022-07-12T17:02:16;1.00;;;0.80;;
21183;SDS011;18176;49.502;11.754;2022-07-12T17:06:14;1.77;;;0.90;;
21183;SDS011;18176;49.502;11.754;2022-07-12T17:10:11;0.98;;;0.88;;
21183;SDS011;18176;49.502;11.754;2022-07-12T17:14:08;1.40;;;1.10;;
21183;SDS011;18176;49.502;11.754;2022-07-12T17:18:05;1.67;;;1.10;;
21183;SDS011;18176;49.502;11.754;2022-07-12T17:22:02;3.83;;;1.60;;
21183;SDS011;18176;49.502;11.754;2022-07-12T17:26:00;3.92;;;2.30;;
21183;SDS011;18176;49.502;11.754;2022-07-12T17:29:57;2.22;;;1.10;;
21183;SDS011;18176;49.502;11.754;2022-07-12T17:33:55;1.45;;;1.35;;
21183;SDS011;18176;49.502;11.754;2022-07-12T17:37:52;0.80;;;0.80;;
21183;SDS011;18176;49.502;11.754;2022-07-12T17:41:49;1.20;;;1.10;;
21183;SDS011;18176;49.502;11.754;2022-07-12T17:45:47;1.95;;;1.00;;
21183;SDS011;18176;49.502;11.754;2022-07-12T17:49:45;1.02;;;1.00;;
21183;SDS011;18176;49.502;11.754;2022-07-12T17:53:43;1.33;;;0.98;;
21183;SDS011;18176;49.502;11.754;2022-07-12T17:57:41;3.08;;;1.10;;
21183;SDS011;18176;49.502;11.754;2022-07-12T18:01:57;2.05;;;0.93;;
21183;SDS011;18176;49.502;11.754;2022-07-12T18:05:54;1.83;;;1.10;;
21183;SDS011;18176;49.502;11.754;2022-07-12T18:09:51;2.00;;;1.00;;
21183;SDS011;18176;49.502;11.754;2022-07-12T18:13:51;1.40;;;1.25;;
21183;SDS011;18176;49.502;11.754;2022-07-12T18:18:08;1.67;;;1.13;;
21183;SDS011;18176;49.502;11.754;2022-07-12T18:22:06;3.65;;;1.38;;
21183;SDS011;18176;49.502;11.754;2022-07-12T18:26:04;1.20;;;1.00;;
21183;SDS011;18176;49.502;11.754;2022-07-12T18:30:01;1.50;;;1.10;;
21183;SDS011;18176;49.502;11.754;2022-07-12T18:33:59;2.85;;;1.10;;
21183;SDS011;18176;49.502;11.754;2022-07-12T18:37:56;2.15;;;0.90;;
21183;SDS011;18176;49.502;11.754;2022-07-12T18:41:53;1.00;;;0.93;;
21183;SDS011;18176;49.502;11.754;2022-07-12T18:45:51;0.88;;;0.88;;
21183;SDS011;18176;49.502;11.754;2022-07-12T18:49:48;1.08;;;0.80;;
21183;SDS011;18176;49.502;11.754;2022-07-12T18:53:45;1.45;;;1.02;;
21183;SDS011;18176;49.502;11.754;2022-07-12T18:57:42;0.82;;;0.82;;
21183;SDS011;18176;49.502;11.754;2022-07-12T19:01:39;0.75;;;0.75;;
21183;SDS011;18176;49.502;11.754;2022-07-12T19:05:36;1.08;;;1.00;;
21183;SDS011;18176;49.502;11.754;2022-07-12T19:09:33;1.02;;;0.95;;
21183;SDS011;18176;49.502;11.754;2022-07-12T19:13:31;1.65;;;1.00;;
21183;SDS011;18176;49.502;11.754;2022-07-12T19:17:28;2.10;;;1.13;;
21183;SDS011;18176;49.502;11.754;2022-07-12T19:21:25;1.20;;;1.10;;
21183;SDS011;18176;49.502;11.754;2022-07-12T19:25:31;1.42;;;1.00;;
21183;SDS011;18176;49.502;11.754;2022-07-12T19:29:28;2.15;;;1.13;;
21183;SDS011;18176;49.502;11.754;2022-07-12T19:33:25;1.50;;;1.20;;
21183;SDS011;18176;49.502;11.754;2022-07-12T19:37:23;3.38;;;1.13;;
21183;SDS011;18176;49.502;11.754;2022-07-12T19:41:20;1.33;;;1.23;;
21183;SDS011;18176;49.502;11.754;2022-07-12T19:45:18;1.10;;;1.00;;
21183;SDS011;18176;49.502;11.754;2022-07-12T19:49:20;1.95;;;1.10;;
21183;SDS011;18176;49.502;11.754;2022-07-12T19:53:18;2.30;;;1.10;;
21183;SDS011;18176;49.502;11.754;2022-07-12T19:57:16;1.70;;;1.13;;
21183;SDS011;18176;49.502;11.754;2022-07-12T20:01:14;1.58;;;1.27;;
21183;SDS011;18176;49.502;11.754;2022-07-12T20:05:12;1.10;;;1.00;;
21183;SDS011;18176;49.502;11.754;2022-07-12T20:09:09;3.13;;;1.40;;
21183;SDS011;18176;49.502;11.754;2022-07-12T20:13:07;3.03;;;1.98;;
21183;SDS011;18176;49.502;11.754;2022-07-12T20:17:05;3.95;;;1.83;;
21183;SDS011;18176;49.502;11.754;2022-07-12T20:21:06;4.78;;;3.58;;
21183;SDS011;18176;49.502;11.754;2022-07-12T20:25:06;10.13;;;6.28;;
21183;SDS011;18176;49.502;11.754;2022-07-12T20:29:03;8.52;;;6.10;;
21183;SDS011;18176;49.502;11.754;2022-07-12T20:33:01;7.60;;;5.80;;
21183;SDS011;18176;49.502;11.754;2022-07-12T20:37:17;8.45;;;4.90;;
21183;SDS011;18176;49.502;11.754;2022-07-12T20:41:14;7.13;;;4.10;;
21183;SDS011;18176;49.502;11.754;2022-07-12T20:45:16;8.75;;;3.30;;
21183;SDS011;18176;49.502;11.754;2022-07-12T20:49:15;1.98;;;1.80;;
21183;SDS011;18176;49.502;11.754;2022-07-12T20:53:17;1.98;;;1.27;;
21183;SDS011;18176;49.502;11.754;2022-07-12T20:57:14;5.20;;;2.20;;
21183;SDS011;18176;49.502;11.754;2022-07-12T21:01:11;10.35;;;3.20;;
21183;SDS011;18176;49.502;11.754;2022-07-12T21:05:08;4.50;;;2.63;;
21183;SDS011;18176;49.502;11.754;2022-07-12T21:09:07;2.78;;;1.92;;
21183;SDS011;18176;49.502;11.754;2022-07-12T21:13:04;2.03;;;1.77;;
21183;SDS011;18176;49.502;11.754;2022-07-12T21:17:01;4.10;;;1.80;;
21183;SDS011;18176;49.502;11.754;2022-07-12T21:20:58;2.55;;;1.88;;
21183;SDS011;18176;49.502;11.754;2022-07-12T21:24:55;4.35;;;1.73;;
21183;SDS011;18176;49.502;11.754;2022-07-12T21:28:52;4.28;;;1.98;;
21183;SDS011;18176;49.502;11.754;2022-07-12T21:32:51;2.85;;;1.52;;
21183;SDS011;18176;49.502;11.754;2022-07-12T21:36:50;1.58;;;1.42;;
21183;SDS011;18176;49.502;11.754;2022-07-12T21:40:48;1.73;;;1.60;;
21183;SDS011;18176;49.502;11.754;2022-07-12T21:44:45;2.40;;;1.80;;
21183;SDS011;18176;49.502;11.754;2022-07-12T21:48:42;2.20;;;1.60;;
21183;SDS011;18176;49.502;11.754;2022-07-12T21:52:40;2.25;;;1.50;;
21183;SDS011;18176;49.502;11.754;2022-07-12T21:56:37;4.45;;;1.70;;
21183;SDS011;18176;49.502;11.754;2022-07-12T22:00:34;2.38;;;1.80;;
21183;SDS011;18176;49.502;11.754;2022-07-12T22:04:31;1.77;;;1.67;;
21183;SDS011;18176;49.502;11.754;2022-07-12T22:08:30;3.90;;;1.90;;
21183;SDS011;18176;49.502;11.754;2022-07-12T22:12:30;6.35;;;2.33;;
21183;SDS011;18176;49.502;11.754;2022-07-12T22:16:27;3.10;;;2.53;;
21183;SDS011;18176;49.502;11.754;2022-07-12T22:20:25;3.88;;;2.00;;
21183;SDS011;18176;49.502;11.754;2022-07-12T22:24:22;2.10;;;1.52;;
21183;SDS011;18176;49.502;11.754;2022-07-12T22:28:19;2.10;;;1.60;;
21183;SDS011;18176;49.502;11.754;2022-07-12T22:32:16;1.60;;;1.50;;
21183;SDS011;18176;49.502;11.754;2022-07-12T22:36:13;1.90;;;1.67;;
21183;SDS011;18176;49.502;11.754;2022-07-12T22:40:11;2.92;;;1.52;;
21183;SDS011;18176;49.502;11.754;2022-07-12T22:44:08;2.38;;;1.88;;
21183;SDS011;18176;49.502;11.754;2022-07-12T22:48:05;2.28;;;1.70;;
21183;SDS011;18176;49.502;11.754;2022-07-12T22:52:02;2.05;;;1.77;;
21183;SDS011;18176;49.502;11.754;2022-07-12T22:56:00;2.05;;;1.70;;
21183;SDS011;18176;49.502;11.754;2022-07-12T23:00:01;1.83;;;1.70;;
21183;SDS011;18176;49.502;11.754;2022-07-12T23:03:59;2.22;;;1.60;;
21183;SDS011;18176;49.502;11.754;2022-07-12T23:07:56;1.50;;;1.40;;
21183;SDS011;18176;49.502;11.754;2022-07-12T23:11:53;2.65;;;1.60;;
21183;SDS011;18176;49.502;11.754;2022-07-12T23:15:50;2.63;;;1.58;;
21183;SDS011;18176;49.502;11.754;2022-07-12T23:19:47;1.98;;;1.65;;
21183;SDS011;18176;49.502;11.754;2022-07-12T23:23:44;2.35;;;1.58;;
21183;SDS011;18176;49.502;11.754;2022-07-12T23:27:41;1.80;;;1.70;;
21183;SDS011;18176;49.502;11.754;2022-07-12T23:31:38;1.85;;;1.63;;
21183;SDS011;18176;49.502;11.754;2022-07-12T23:35:36;1.63;;;1.52;;
21183;SDS011;18176;49.502;11.754;2022-07-12T23:39:33;1.40;;;1.30;;
21183;SDS011;18176;49.502;11.754;2022-07-12T23:43:30;2.20;;;1.70;;
21183;SDS011;18176;49.502;11.754;2022-07-12T23:47:27;2.03;;;1.83;;
21183;SDS011;18176;49.502;11.754;2022-07-12T23:51:24;1.87;;;1.77;;
21183;SDS011;18176;49.502;11.754;2022-07-12T23:55:21;1.70;;;1.50;;
21183;SDS011;18176;49.502;11.754;2022-07-12T23:59:18;2.00;;;1.80;;
